Maersk Columbus — WMCU — position and weather

sailwx.info

Track history (hours):
 
Tides and Currents Weather Stations Pressure Air Temp Water Temp Dewpoint Dewpoint Depression Visibility Wind Speed Wind Dir Waves Ship Positions

Maersk Columbus

Owner: MAERSK LINE, LIMITED, NORFOLK, VA. More information available from US FCC via Universal Licensing System and Coast Guard Vessel Documentation Center.

Last reported at 2017-Dec-10 18:00 UTC. Time now 2017-Dec-11 02:07 UTC.
Position N 40°00' W 065°06'.

Length 299 m; draft 12.9 m.

Type: Ship (hazmat cat A). MMSI: 338525000.

Wind from 280 at 30 knots

Barometer 1006.8 mb
Air temperature 14.0 ° C
Visibility: greater than 5.4 NM
Dewpoint 10.2 ° C
Water temperature 22.0 ° C

Date/timePositionNaut miles runAvg speedWind from/ knotsBaromVisibWave heightAir tempDewpointWater temp
2017-Dec-10 18:00N 40°00' W 065°06'3210.7 280 / 301006.8 5.4 14.010.222.0
2017-Dec-10 15:00N 40°00' W 065°48'18512.3 290 / 151005.810.8 13.0 8.022.0
2017-Dec-10 00:00N 40°24' W 069°48'5012.6 030 / 33998.5 0.3 5.0-0.311.7
2017-Dec-09 20:00N 40°24' W 070°54'12512.7 050 / 331003.6 1.1 7.0 4.711.0
2017-Dec-09 10:12N 40°25' W 073°38'3 8.8
2017-Dec-09 09:53N 40°26' W 073°41'4 9.5
2017-Dec-09 09:29N 40°26' W 073°46'4 8.5
2017-Dec-09 08:59N 40°28' W 073°52'5 9.5
2017-Dec-09 08:30N 40°30' W 073°57'712.8
2017-Dec-09 07:59N 40°35' W 074°02'4 8.2
2017-Dec-09 07:30N 40°39' W 074°04'3 5.9
2017-Dec-09 07:00N 40°39' W 074°08'1 2.4
2017-Dec-09 06:30N 40°40' W 074°09'0 0.3
2017-Dec-09 05:58N 40°40' W 074°09'0 0.0
2017-Dec-09 05:28N 40°40' W 074°09'0 0.0
2017-Dec-09 04:58N 40°40' W 074°09'0 0.0
2017-Dec-09 04:28N 40°40' W 074°09'0 0.0
2017-Dec-09 03:58N 40°40' W 074°09'0 0.0
2017-Dec-09 03:28N 40°40' W 074°09'0 0.0
2017-Dec-09 02:58N 40°40' W 074°09'0 0.0
2017-Dec-09 02:28N 40°40' W 074°09'0 0.0
2017-Dec-09 01:58N 40°40' W 074°09'0 0.0
2017-Dec-09 01:28N 40°40' W 074°09'0 0.0
2017-Dec-09 00:58N 40°40' W 074°09'0 0.0
2017-Dec-09 00:25N 40°40' W 074°09'0 0.0
2017-Dec-08 23:58N 40°40' W 074°09'0 0.0
2017-Dec-08 23:28N 40°40' W 074°09'0 0.0
2017-Dec-08 22:58N 40°40' W 074°09'0 0.0
2017-Dec-08 22:28N 40°40' W 074°09'0 0.0
2017-Dec-08 21:58N 40°40' W 074°09'0 0.0
2017-Dec-08 21:28N 40°40' W 074°09'0 0.0
2017-Dec-08 20:58N 40°40' W 074°09'0 0.0
2017-Dec-08 20:28N 40°40' W 074°09'0 0.0
2017-Dec-08 19:58N 40°40' W 074°09'0 0.0
2017-Dec-08 19:28N 40°40' W 074°09'0 0.0
2017-Dec-08 18:58N 40°40' W 074°09'0 0.0
2017-Dec-08 18:28N 40°40' W 074°09'0 0.0
2017-Dec-08 17:58N 40°40' W 074°09'0 0.0
2017-Dec-08 17:28N 40°40' W 074°09'0 0.0
2017-Dec-08 16:58N 40°40' W 074°09'0 0.0
2017-Dec-08 16:28N 40°40' W 074°09'0 0.0
2017-Dec-08 15:58N 40°40' W 074°09'0 0.0
2017-Dec-08 15:28N 40°40' W 074°09'0 0.0
2017-Dec-08 14:58N 40°40' W 074°09'0 0.0
2017-Dec-08 14:28N 40°40' W 074°09'0 0.0
2017-Dec-08 13:58N 40°40' W 074°09'0 0.0
2017-Dec-08 13:28N 40°40' W 074°09'0 0.0
2017-Dec-08 12:58N 40°40' W 074°09'0 0.0
2017-Dec-08 12:28N 40°40' W 074°09'0 0.0
2017-Dec-08 11:58N 40°40' W 074°09'0 0.0
2017-Dec-08 11:28N 40°40' W 074°09'0 0.0
2017-Dec-08 10:58N 40°40' W 074°09'1 1.7
2017-Dec-08 10:30N 40°39' W 074°09'2 4.9
2017-Dec-08 10:00N 40°39' W 074°06'3 6.4
2017-Dec-08 09:30N 40°37' W 074°03'713.7
2017-Dec-08 09:00N 40°31' W 073°58'510.0
2017-Dec-08 08:30N 40°28' W 073°52'4 7.9
2017-Dec-08 08:00N 40°27' W 073°47'3 6.9
2017-Dec-08 07:30N 40°24' W 073°47'4 8.9
2017-Dec-08 07:00N 40°19' W 073°46'7410.5
2017-Dec-08 00:00N 39°06' W 073°54'163 9.9 270 / 61018.210.8 8.0 5.812.8
2017-Dec-07 07:33N 36°51' W 075°50'1 9.3
2017-Dec-07 07:25N 36°51' W 075°52'4 9.6
2017-Dec-07 07:01N 36°54' W 075°55'5 8.9
2017-Dec-07 06:30N 36°57' W 075°60'612.2
2017-Dec-07 06:00N 36°59' W 076°07'714.9
2017-Dec-07 05:30N 37°00' W 076°16'510.3
2017-Dec-07 05:01N 36°56' W 076°20'4 7.5
2017-Dec-07 04:30N 36°53' W 076°21'0 0.7
2017-Dec-07 03:59N 36°52' W 076°21'0 0.0
2017-Dec-07 03:29N 36°52' W 076°21'0 0.0
2017-Dec-07 02:59N 36°52' W 076°21'0 0.0
2017-Dec-07 02:29N 36°52' W 076°21'0 0.0
2017-Dec-07 01:59N 36°52' W 076°21'0 0.0
2017-Dec-07 01:29N 36°52' W 076°21'0 0.0
2017-Dec-07 00:59N 36°52' W 076°21'0 0.0
2017-Dec-07 00:29N 36°52' W 076°21'0 0.0
2017-Dec-06 23:59N 36°52' W 076°21'0 0.0
2017-Dec-06 23:29N 36°52' W 076°21'0 0.0
2017-Dec-06 22:59N 36°52' W 076°21'0 0.0
2017-Dec-06 22:29N 36°52' W 076°21'0 0.0
2017-Dec-06 21:59N 36°52' W 076°21'0 0.0
2017-Dec-06 21:29N 36°52' W 076°21'0 0.0
2017-Dec-06 20:59N 36°52' W 076°21'251 7.6
2017-Dec-05 12:00N 32°48' W 077°30'42517.0 190 / 211023.910.8 21.019.426.0
2017-Dec-04 11:00N 26°00' W 079°48'613.1 070 / 181019.310.8 23.021.526.8
2017-Dec-04 10:31N 25°54' W 079°50'918.3
2017-Dec-04 10:00N 25°45' W 079°50'918.1
2017-Dec-04 09:31N 25°36' W 079°53'917.8
2017-Dec-04 09:01N 25°28' W 079°56'1018.0
2017-Dec-04 08:27N 25°18' W 080°00'20013.8
2017-Dec-03 18:00N 24°18' W 083°30'8414.1 060 / 141018.410.8 26.024.626.0
2017-Dec-03 12:00N 24°54' W 084°54'9616.1 060 / 161018.910.8 25.022.027.4
2017-Dec-03 06:00N 25°36' W 086°30'8113.6 080 / 121019.810.8 27.024.125.0
2017-Dec-03 00:00N 26°06' W 087°54'19115.9 040 / 111019.310.8 25.022.025.2
2017-Dec-02 12:00N 27°18' W 091°12'22714.6 190 / 51019.810.8 23.021.524.4
2017-Dec-01 20:30N 29°22' W 094°48'612.0
2017-Dec-01 20:00N 29°27' W 094°51'612.3
2017-Dec-01 19:30N 29°33' W 094°54'510.8
2017-Dec-01 19:01N 29°37' W 094°58'2 3.3
2017-Dec-01 18:28N 29°37' W 095°00'0 0.0
2017-Dec-01 17:58N 29°37' W 095°00'0 0.0
2017-Dec-01 17:28N 29°37' W 095°00'0 0.0
2017-Dec-01 16:58N 29°37' W 095°00'0 0.0
2017-Dec-01 16:28N 29°37' W 095°00'0 0.0
2017-Dec-01 15:55N 29°37' W 095°00'0 0.0
2017-Dec-01 15:28N 29°37' W 095°00'0 0.0
2017-Dec-01 14:58N 29°37' W 095°00'0 0.0
2017-Dec-01 14:28N 29°37' W 095°00'0 0.0
2017-Dec-01 13:58N 29°37' W 095°00'0 0.0
2017-Dec-01 13:28N 29°37' W 095°00'0 0.0
2017-Dec-01 12:58N 29°37' W 095°00'0 0.0
2017-Dec-01 12:28N 29°37' W 095°00'0 0.0
2017-Dec-01 11:58N 29°37' W 095°00'0 0.0
2017-Dec-01 11:28N 29°37' W 095°00'0 0.0
2017-Dec-01 10:58N 29°37' W 095°00'0 0.0
2017-Dec-01 10:28N 29°37' W 095°00'0 0.0
2017-Dec-01 09:58N 29°37' W 095°00'0 0.0
2017-Dec-01 09:28N 29°37' W 095°00'0 0.0
2017-Dec-01 08:58N 29°37' W 095°00'0 0.0
2017-Dec-01 08:28N 29°37' W 095°00'0 0.0
2017-Dec-01 07:58N 29°37' W 095°00'0 0.0
2017-Dec-01 07:25N 29°37' W 095°00'0 0.0
2017-Dec-01 06:58N 29°37' W 095°00'0 0.0
2017-Dec-01 06:28N 29°37' W 095°00'0 0.0
2017-Dec-01 05:58N 29°37' W 095°00'0 0.0
2017-Dec-01 05:28N 29°37' W 095°00'0 0.0
2017-Dec-01 04:58N 29°37' W 095°00'0 0.0
2017-Dec-01 04:28N 29°37' W 095°00'0 0.0
2017-Dec-01 03:58N 29°37' W 095°00'0 0.0
2017-Dec-01 03:28N 29°37' W 095°00'0 0.0
2017-Dec-01 02:58N 29°37' W 095°00'0 0.0
2017-Dec-01 02:28N 29°37' W 095°00'0 0.0
2017-Dec-01 01:58N 29°37' W 095°00'0 0.0
2017-Dec-01 01:28N 29°37' W 095°00'0 0.0
2017-Dec-01 00:58N 29°37' W 095°00'0 0.0
2017-Dec-01 00:25N 29°37' W 095°00'0 0.0
2017-Nov-30 23:58N 29°37' W 095°00'0 0.0
2017-Nov-30 23:28N 29°37' W 095°00'0 0.0
2017-Nov-30 22:58N 29°37' W 095°00'0 0.0
2017-Nov-30 22:28N 29°37' W 095°00'0 0.0
2017-Nov-30 21:58N 29°37' W 095°00'0 0.0
2017-Nov-30 21:28N 29°37' W 095°00'0 0.0
2017-Nov-30 20:58N 29°37' W 095°00'0 0.0
2017-Nov-30 20:28N 29°37' W 095°00'0 0.0
2017-Nov-30 19:58N 29°37' W 095°00'0 0.0
2017-Nov-30 19:28N 29°37' W 095°00'0 0.0
2017-Nov-30 18:58N 29°37' W 095°00'0 0.0
2017-Nov-30 18:28N 29°37' W 095°00'  
Track history (hours):
 
Tides and Currents Weather Stations Pressure Air Temp Water Temp Dewpoint Dewpoint Depression Visibility Wind Speed Wind Dir Waves Ship Positions

Maersk Columbus

Owner: MAERSK LINE, LIMITED, NORFOLK, VA. More information available from US FCC via Universal Licensing System and Coast Guard Vessel Documentation Center.

Last reported at 2017-Dec-10 18:00 UTC. Time now 2017-Dec-11 02:07 UTC.
Position N 40°00' W 065°06'.

Length 299 m; draft 12.9 m.

Type: Ship (hazmat cat A). MMSI: 338525000.

Wind from 280 at 30 knots

Barometer 1006.8 mb
Air temperature 14.0 ° C
Visibility: greater than 5.4 NM
Dewpoint 10.2 ° C
Water temperature 22.0 ° C

Date/timePositionNaut miles runAvg speedWind from/ knotsBaromVisibWave heightAir tempDewpointWater temp
2017-Dec-10 18:00N 40°00' W 065°06'3210.7 280 / 301006.8 5.4 14.010.222.0
2017-Dec-10 15:00N 40°00' W 065°48'18512.3 290 / 151005.810.8 13.0 8.022.0
2017-Dec-10 00:00N 40°24' W 069°48'5012.6 030 / 33998.5 0.3 5.0-0.311.7
2017-Dec-09 20:00N 40°24' W 070°54'12512.7 050 / 331003.6 1.1 7.0 4.711.0
2017-Dec-09 10:12N 40°25' W 073°38'3 8.8
2017-Dec-09 09:53N 40°26' W 073°41'4 9.5
2017-Dec-09 09:29N 40°26' W 073°46'4 8.5
2017-Dec-09 08:59N 40°28' W 073°52'5 9.5
2017-Dec-09 08:30N 40°30' W 073°57'712.8
2017-Dec-09 07:59N 40°35' W 074°02'4 8.2
2017-Dec-09 07:30N 40°39' W 074°04'3 5.9
2017-Dec-09 07:00N 40°39' W 074°08'1 2.4
2017-Dec-09 06:30N 40°40' W 074°09'0 0.3
2017-Dec-09 05:58N 40°40' W 074°09'0 0.0
2017-Dec-09 05:28N 40°40' W 074°09'0 0.0
2017-Dec-09 04:58N 40°40' W 074°09'0 0.0
2017-Dec-09 04:28N 40°40' W 074°09'0 0.0
2017-Dec-09 03:58N 40°40' W 074°09'0 0.0
2017-Dec-09 03:28N 40°40' W 074°09'0 0.0
2017-Dec-09 02:58N 40°40' W 074°09'0 0.0
2017-Dec-09 02:28N 40°40' W 074°09'0 0.0
2017-Dec-09 01:58N 40°40' W 074°09'0 0.0
2017-Dec-09 01:28N 40°40' W 074°09'0 0.0
2017-Dec-09 00:58N 40°40' W 074°09'0 0.0
2017-Dec-09 00:25N 40°40' W 074°09'0 0.0
2017-Dec-08 23:58N 40°40' W 074°09'0 0.0
2017-Dec-08 23:28N 40°40' W 074°09'0 0.0
2017-Dec-08 22:58N 40°40' W 074°09'0 0.0
2017-Dec-08 22:28N 40°40' W 074°09'0 0.0
2017-Dec-08 21:58N 40°40' W 074°09'0 0.0
2017-Dec-08 21:28N 40°40' W 074°09'0 0.0
2017-Dec-08 20:58N 40°40' W 074°09'0 0.0
2017-Dec-08 20:28N 40°40' W 074°09'0 0.0
2017-Dec-08 19:58N 40°40' W 074°09'0 0.0
2017-Dec-08 19:28N 40°40' W 074°09'0 0.0
2017-Dec-08 18:58N 40°40' W 074°09'0 0.0
2017-Dec-08 18:28N 40°40' W 074°09'0 0.0
2017-Dec-08 17:58N 40°40' W 074°09'0 0.0
2017-Dec-08 17:28N 40°40' W 074°09'0 0.0
2017-Dec-08 16:58N 40°40' W 074°09'0 0.0
2017-Dec-08 16:28N 40°40' W 074°09'0 0.0
2017-Dec-08 15:58N 40°40' W 074°09'0 0.0
2017-Dec-08 15:28N 40°40' W 074°09'0 0.0
2017-Dec-08 14:58N 40°40' W 074°09'0 0.0
2017-Dec-08 14:28N 40°40' W 074°09'0 0.0
2017-Dec-08 13:58N 40°40' W 074°09'0 0.0
2017-Dec-08 13:28N 40°40' W 074°09'0 0.0
2017-Dec-08 12:58N 40°40' W 074°09'0 0.0
2017-Dec-08 12:28N 40°40' W 074°09'0 0.0
2017-Dec-08 11:58N 40°40' W 074°09'0 0.0
2017-Dec-08 11:28N 40°40' W 074°09'0 0.0
2017-Dec-08 10:58N 40°40' W 074°09'1 1.7
2017-Dec-08 10:30N 40°39' W 074°09'2 4.9
2017-Dec-08 10:00N 40°39' W 074°06'3 6.4
2017-Dec-08 09:30N 40°37' W 074°03'713.7
2017-Dec-08 09:00N 40°31' W 073°58'510.0
2017-Dec-08 08:30N 40°28' W 073°52'4 7.9
2017-Dec-08 08:00N 40°27' W 073°47'3 6.9
2017-Dec-08 07:30N 40°24' W 073°47'4 8.9
2017-Dec-08 07:00N 40°19' W 073°46'7410.5
2017-Dec-08 00:00N 39°06' W 073°54'163 9.9 270 / 61018.210.8 8.0 5.812.8
2017-Dec-07 07:33N 36°51' W 075°50'1 9.3
2017-Dec-07 07:25N 36°51' W 075°52'4 9.6
2017-Dec-07 07:01N 36°54' W 075°55'5 8.9
2017-Dec-07 06:30N 36°57' W 075°60'612.2
2017-Dec-07 06:00N 36°59' W 076°07'714.9
2017-Dec-07 05:30N 37°00' W 076°16'510.3
2017-Dec-07 05:01N 36°56' W 076°20'4 7.5
2017-Dec-07 04:30N 36°53' W 076°21'0 0.7
2017-Dec-07 03:59N 36°52' W 076°21'0 0.0
2017-Dec-07 03:29N 36°52' W 076°21'0 0.0
2017-Dec-07 02:59N 36°52' W 076°21'0 0.0
2017-Dec-07 02:29N 36°52' W 076°21'0 0.0
2017-Dec-07 01:59N 36°52' W 076°21'0 0.0
2017-Dec-07 01:29N 36°52' W 076°21'0 0.0
2017-Dec-07 00:59N 36°52' W 076°21'0 0.0
2017-Dec-07 00:29N 36°52' W 076°21'0 0.0
2017-Dec-06 23:59N 36°52' W 076°21'0 0.0
2017-Dec-06 23:29N 36°52' W 076°21'0 0.0
2017-Dec-06 22:59N 36°52' W 076°21'0 0.0
2017-Dec-06 22:29N 36°52' W 076°21'0 0.0
2017-Dec-06 21:59N 36°52' W 076°21'0 0.0
2017-Dec-06 21:29N 36°52' W 076°21'0 0.0
2017-Dec-06 20:59N 36°52' W 076°21'251 7.6
2017-Dec-05 12:00N 32°48' W 077°30'42517.0 190 / 211023.910.8 21.019.426.0
2017-Dec-04 11:00N 26°00' W 079°48'613.1 070 / 181019.310.8 23.021.526.8
2017-Dec-04 10:31N 25°54' W 079°50'918.3
2017-Dec-04 10:00N 25°45' W 079°50'918.1
2017-Dec-04 09:31N 25°36' W 079°53'917.8
2017-Dec-04 09:01N 25°28' W 079°56'1018.0
2017-Dec-04 08:27N 25°18' W 080°00'20013.8
2017-Dec-03 18:00N 24°18' W 083°30'8414.1 060 / 141018.410.8 26.024.626.0
2017-Dec-03 12:00N 24°54' W 084°54'9616.1 060 / 161018.910.8 25.022.027.4
2017-Dec-03 06:00N 25°36' W 086°30'8113.6 080 / 121019.810.8 27.024.125.0
2017-Dec-03 00:00N 26°06' W 087°54'19115.9 040 / 111019.310.8 25.022.025.2
2017-Dec-02 12:00N 27°18' W 091°12'22714.6 190 / 51019.810.8 23.021.524.4
2017-Dec-01 20:30N 29°22' W 094°48'612.0
2017-Dec-01 20:00N 29°27' W 094°51'612.3
2017-Dec-01 19:30N 29°33' W 094°54'510.8
2017-Dec-01 19:01N 29°37' W 094°58'2 3.3
2017-Dec-01 18:28N 29°37' W 095°00'0 0.0
2017-Dec-01 17:58N 29°37' W 095°00'0 0.0
2017-Dec-01 17:28N 29°37' W 095°00'0 0.0
2017-Dec-01 16:58N 29°37' W 095°00'0 0.0
2017-Dec-01 16:28N 29°37' W 095°00'0 0.0
2017-Dec-01 15:55N 29°37' W 095°00'0 0.0
2017-Dec-01 15:28N 29°37' W 095°00'0 0.0
2017-Dec-01 14:58N 29°37' W 095°00'0 0.0
2017-Dec-01 14:28N 29°37' W 095°00'0 0.0
2017-Dec-01 13:58N 29°37' W 095°00'0 0.0
2017-Dec-01 13:28N 29°37' W 095°00'0 0.0
2017-Dec-01 12:58N 29°37' W 095°00'0 0.0
2017-Dec-01 12:28N 29°37' W 095°00'0 0.0
2017-Dec-01 11:58N 29°37' W 095°00'0 0.0
2017-Dec-01 11:28N 29°37' W 095°00'0 0.0
2017-Dec-01 10:58N 29°37' W 095°00'0 0.0
2017-Dec-01 10:28N 29°37' W 095°00'0 0.0
2017-Dec-01 09:58N 29°37' W 095°00'0 0.0
2017-Dec-01 09:28N 29°37' W 095°00'0 0.0
2017-Dec-01 08:58N 29°37' W 095°00'0 0.0
2017-Dec-01 08:28N 29°37' W 095°00'0 0.0
2017-Dec-01 07:58N 29°37' W 095°00'0 0.0
2017-Dec-01 07:25N 29°37' W 095°00'0 0.0
2017-Dec-01 06:58N 29°37' W 095°00'0 0.0
2017-Dec-01 06:28N 29°37' W 095°00'0 0.0
2017-Dec-01 05:58N 29°37' W 095°00'0 0.0
2017-Dec-01 05:28N 29°37' W 095°00'0 0.0
2017-Dec-01 04:58N 29°37' W 095°00'0 0.0
2017-Dec-01 04:28N 29°37' W 095°00'0 0.0
2017-Dec-01 03:58N 29°37' W 095°00'0 0.0
2017-Dec-01 03:28N 29°37' W 095°00'0 0.0
2017-Dec-01 02:58N 29°37' W 095°00'0 0.0
2017-Dec-01 02:28N 29°37' W 095°00'0 0.0
2017-Dec-01 01:58N 29°37' W 095°00'0 0.0
2017-Dec-01 01:28N 29°37' W 095°00'0 0.0
2017-Dec-01 00:58N 29°37' W 095°00'0 0.0
2017-Dec-01 00:25N 29°37' W 095°00'0 0.0
2017-Nov-30 23:58N 29°37' W 095°00'0 0.0
2017-Nov-30 23:28N 29°37' W 095°00'0 0.0
2017-Nov-30 22:58N 29°37' W 095°00'0 0.0
2017-Nov-30 22:28N 29°37' W 095°00'0 0.0
2017-Nov-30 21:58N 29°37' W 095°00'0 0.0
2017-Nov-30 21:28N 29°37' W 095°00'0 0.0
2017-Nov-30 20:58N 29°37' W 095°00'0 0.0
2017-Nov-30 20:28N 29°37' W 095°00'0 0.0
2017-Nov-30 19:58N 29°37' W 095°00'0 0.0
2017-Nov-30 19:28N 29°37' W 095°00'0 0.0
2017-Nov-30 18:58N 29°37' W 095°00'0 0.0
2017-Nov-30 18:28N 29°37' W 095°00'  

Dump ship's entire track history